createdAt,value
2023-02-05T00:00:17.471Z,9.90
2023-02-05T00:02:44.583Z,9.43
2023-02-05T00:05:11.116Z,10.70
2023-02-05T00:07:37.633Z,11.53
2023-02-05T00:10:04.909Z,10.73
2023-02-05T00:12:31.415Z,10.47
2023-02-05T00:14:57.848Z,10.53
2023-02-05T00:17:24.323Z,10.97
2023-02-05T00:19:50.811Z,9.43
2023-02-05T00:22:17.318Z,8.27
2023-02-05T00:24:43.900Z,7.63
2023-02-05T00:27:10.381Z,7.80
2023-02-05T00:29:36.864Z,6.70
2023-02-05T00:32:03.489Z,7.80
2023-02-05T00:34:29.979Z,9.23
2023-02-05T00:36:56.446Z,9.53
2023-02-05T00:39:23.031Z,10.53
2023-02-05T00:41:49.507Z,10.80
2023-02-05T00:44:15.958Z,10.13
2023-02-05T00:46:43.597Z,10.33
2023-02-05T00:49:10.034Z,10.23
2023-02-05T00:51:36.499Z,11.03
2023-02-05T00:54:03.001Z,11.70
2023-02-05T00:56:29.472Z,11.13
2023-02-05T00:58:57.500Z,10.70
2023-02-05T01:01:24.046Z,9.97
2023-02-05T01:03:50.581Z,10.77
2023-02-05T01:06:17.214Z,9.13
2023-02-05T01:08:44.175Z,8.87
2023-02-05T01:11:11.385Z,8.77
2023-02-05T01:13:39.434Z,11.53
2023-02-05T01:16:06.635Z,11.33
2023-02-05T01:18:33.376Z,13.90
2023-02-05T01:20:59.875Z,13.60
2023-02-05T01:23:26.359Z,10.10
2023-02-05T01:25:52.999Z,10.13
2023-02-05T01:28:19.460Z,9.30
2023-02-05T01:30:50.393Z,10.03
2023-02-05T01:33:17.724Z,9.93
2023-02-05T01:35:44.941Z,11.00
2023-02-05T01:38:15.022Z,12.13
2023-02-05T01:40:42.175Z,12.50
2023-02-05T01:43:14.103Z,13.20
2023-02-05T01:46:14.897Z,13.17
2023-02-05T01:48:46.382Z,13.80
2023-02-05T01:51:15.065Z,12.67
2023-02-05T01:53:42.968Z,12.53
2023-02-05T01:56:19.634Z,11.47
2023-02-05T01:58:52.535Z,11.90
2023-02-05T02:01:19.148Z,10.63
2023-02-05T02:03:47.490Z,10.70
2023-02-05T02:06:13.944Z,10.50
2023-02-05T02:08:40.404Z,10.60
2023-02-05T02:11:10.227Z,10.60
2023-02-05T02:13:38.597Z,10.03
2023-02-05T02:16:06.593Z,9.63
2023-02-05T02:18:34.812Z,9.27
2023-02-05T02:21:10.269Z,7.90
2023-02-05T02:24:07.738Z,8.43
2023-02-05T02:26:42.511Z,8.33
2023-02-05T02:29:18.129Z,8.37
2023-02-05T02:31:56.535Z,8.23
2023-02-05T02:34:41.125Z,8.90
2023-02-05T02:37:18.723Z,8.10
2023-02-05T02:39:58.892Z,7.23
2023-02-05T02:42:40.994Z,10.77
2023-02-05T02:45:09.901Z,9.83
2023-02-05T02:47:47.158Z,8.57
2023-02-05T02:50:21.273Z,8.40
2023-02-05T02:52:51.190Z,9.30
2023-02-05T02:55:20.177Z,9.80
2023-02-05T02:57:51.491Z,10.13
2023-02-05T03:00:26.866Z,9.23
2023-02-05T03:03:00.536Z,9.60
2023-02-05T03:05:28.842Z,10.70
2023-02-05T03:08:07.893Z,9.97
2023-02-05T03:10:44.474Z,9.97
2023-02-05T03:13:13.978Z,9.93
2023-02-05T03:15:46.684Z,10.27
2023-02-05T03:18:15.142Z,9.27
2023-02-05T03:20:51.415Z,9.40
2023-02-05T03:23:18.605Z,8.67
2023-02-05T03:25:45.277Z,8.77
2023-02-05T03:28:13.653Z,9.30
2023-02-05T03:30:48.097Z,9.10
2023-02-05T03:33:29.619Z,9.20
2023-02-05T03:36:17.305Z,9.37
2023-02-05T03:39:26.047Z,8.87
2023-02-05T03:42:28.239Z,8.00
2023-02-05T03:45:33.417Z,9.10
2023-02-05T03:48:12.491Z,8.07
2023-02-05T03:50:55.471Z,9.27
2023-02-05T03:53:54.320Z,9.07
2023-02-05T03:56:31.599Z,8.97
2023-02-05T03:58:59.224Z,8.93
2023-02-05T04:01:26.816Z,9.00
2023-02-05T04:03:53.383Z,9.00
2023-02-05T04:06:19.852Z,9.13
2023-02-05T04:08:48.449Z,8.87
2023-02-05T04:11:15.667Z,9.23
2023-02-05T04:13:44.412Z,8.53
2023-02-05T04:16:12.025Z,9.43
2023-02-05T04:18:39.075Z,8.47
2023-02-05T04:21:05.670Z,9.33
2023-02-05T04:23:35.614Z,8.47
2023-02-05T04:26:02.438Z,9.40
2023-02-05T04:28:35.233Z,9.63
2023-02-05T04:31:07.619Z,9.03
2023-02-05T04:33:34.585Z,8.83
2023-02-05T04:36:01.464Z,9.17
2023-02-05T04:38:28.717Z,9.73
2023-02-05T04:40:55.450Z,10.07
2023-02-05T04:43:21.931Z,9.77
2023-02-05T04:45:48.502Z,10.40
2023-02-05T04:48:15.043Z,9.90
2023-02-05T04:50:41.526Z,9.57
2023-02-05T04:53:08.074Z,9.57
2023-02-05T04:55:34.780Z,9.33
2023-02-05T04:58:01.555Z,10.07
2023-02-05T05:00:28.131Z,10.13
2023-02-05T05:02:54.718Z,9.80
2023-02-05T05:05:21.167Z,9.50
2023-02-05T05:07:48.748Z,9.40
2023-02-05T05:10:15.350Z,10.03
2023-02-05T05:12:42.153Z,9.87
2023-02-05T05:15:09.135Z,9.60
2023-02-05T05:17:35.672Z,9.33
2023-02-05T05:20:02.548Z,9.50
2023-02-05T05:22:28.995Z,9.67
2023-02-05T05:24:55.436Z,9.23
2023-02-05T05:27:23.092Z,10.10
2023-02-05T05:29:49.639Z,9.43
2023-02-05T05:32:16.514Z,10.03
2023-02-05T05:34:43.002Z,9.53
2023-02-05T05:37:09.433Z,9.17
2023-02-05T05:39:54.581Z,9.03
2023-02-05T05:42:39.415Z,9.43
2023-02-05T05:45:06.123Z,9.57
2023-02-05T05:47:32.534Z,9.43
2023-02-05T05:49:58.991Z,9.83
2023-02-05T05:52:25.431Z,10.37
2023-02-05T05:54:52.056Z,10.00
2023-02-05T05:57:18.512Z,10.47
2023-02-05T05:59:44.971Z,10.67
2023-02-05T06:02:11.468Z,10.53
2023-02-05T06:04:37.957Z,11.00
2023-02-05T06:07:04.539Z,11.43
2023-02-05T06:09:31.108Z,9.73
2023-02-05T06:11:57.636Z,10.80
2023-02-05T06:14:24.187Z,10.67
2023-02-05T06:16:52.020Z,10.13
2023-02-05T06:19:18.642Z,10.03
2023-02-05T06:21:45.064Z,10.30
2023-02-05T06:24:11.605Z,10.90
2023-02-05T06:26:38.031Z,12.03
2023-02-05T06:29:04.507Z,11.17
2023-02-05T06:31:31.809Z,11.53
2023-02-05T06:33:58.610Z,11.97
2023-02-05T06:36:25.118Z,13.07
2023-02-05T06:38:51.610Z,11.83
2023-02-05T06:41:18.220Z,12.60
2023-02-05T06:43:44.894Z,12.27
2023-02-05T06:46:11.397Z,12.50
2023-02-05T06:48:37.872Z,12.63
2023-02-05T06:51:04.618Z,12.70
2023-02-05T06:53:31.050Z,12.87
2023-02-05T06:55:58.934Z,12.40
2023-02-05T06:58:25.428Z,12.53
2023-02-05T07:00:51.889Z,12.23
2023-02-05T07:03:18.327Z,12.83
2023-02-05T07:05:44.904Z,12.53
2023-02-05T07:08:11.437Z,12.63
2023-02-05T07:10:37.934Z,12.67
2023-02-05T07:13:05.930Z,12.90
2023-02-05T07:15:35.315Z,12.70
2023-02-05T07:18:01.989Z,13.57
2023-02-05T07:20:28.618Z,13.73
2023-02-05T07:22:55.218Z,12.50
2023-02-05T07:25:21.818Z,13.23
2023-02-05T07:27:48.327Z,13.33
2023-02-05T07:30:15.161Z,13.20
2023-02-05T07:32:41.648Z,13.33
2023-02-05T07:35:08.246Z,13.67
2023-02-05T07:37:37.263Z,12.60
2023-02-05T07:40:04.135Z,13.60
2023-02-05T07:42:31.693Z,14.00
2023-02-05T07:45:00.781Z,16.00
2023-02-05T07:47:27.206Z,15.87
2023-02-05T07:49:53.673Z,14.43
2023-02-05T07:52:20.105Z,14.10
2023-02-05T07:54:46.645Z,15.50
2023-02-05T07:57:13.463Z,15.37
2023-02-05T07:59:40.148Z,15.70
2023-02-05T08:02:06.685Z,15.00
2023-02-05T08:04:33.260Z,16.20
2023-02-05T08:06:59.774Z,16.10
2023-02-05T08:09:26.287Z,15.50
2023-02-05T08:11:52.767Z,14.97
2023-02-05T08:14:19.873Z,16.90
2023-02-05T08:16:46.406Z,15.40
2023-02-05T08:19:17.913Z,15.80
2023-02-05T08:21:44.541Z,15.73
2023-02-05T08:24:11.392Z,16.40
2023-02-05T08:26:37.878Z,15.43
2023-02-05T08:29:04.428Z,16.30
2023-02-05T08:31:30.970Z,16.90
2023-02-05T08:33:59.989Z,18.17
2023-02-05T08:36:28.157Z,18.37
2023-02-05T08:38:54.614Z,17.83
2023-02-05T08:41:21.101Z,17.80
2023-02-05T08:43:49.562Z,18.90
2023-02-05T08:46:19.881Z,19.40
2023-02-05T08:48:47.551Z,18.73
2023-02-05T08:51:15.759Z,18.23
2023-02-05T08:53:42.269Z,17.23
2023-02-05T08:56:10.645Z,17.80
2023-02-05T08:58:38.587Z,19.33
2023-02-05T09:01:16.939Z,19.80
2023-02-05T09:03:43.928Z,18.50
2023-02-05T09:06:13.610Z,17.43
2023-02-05T09:08:40.658Z,17.03
2023-02-05T09:11:08.212Z,17.17
2023-02-05T09:13:34.820Z,16.30
2023-02-05T09:16:01.278Z,17.90
2023-02-05T09:18:27.751Z,17.57
2023-02-05T09:20:54.502Z,18.40
2023-02-05T09:23:21.391Z,17.77
2023-02-05T09:25:47.879Z,17.83
2023-02-05T09:28:15.109Z,17.83
2023-02-05T09:30:44.118Z,16.93
2023-02-05T09:33:11.935Z,17.23
2023-02-05T09:35:38.557Z,16.80
2023-02-05T09:38:05.649Z,16.23
2023-02-05T09:40:40.796Z,16.30
2023-02-05T09:43:24.224Z,17.90
2023-02-05T09:46:00.943Z,17.07
2023-02-05T09:48:49.752Z,16.60
2023-02-05T09:51:19.216Z,16.77
2023-02-05T09:53:52.056Z,15.80
2023-02-05T09:56:18.896Z,16.80
2023-02-05T09:58:49.499Z,18.03
2023-02-05T10:01:27.449Z,17.20
2023-02-05T10:04:01.489Z,17.53
2023-02-05T10:06:49.806Z,18.17
2023-02-05T10:09:38.104Z,19.20
2023-02-05T10:12:10.749Z,18.60
2023-02-05T10:14:55.774Z,18.07
2023-02-05T10:17:38.173Z,18.30
2023-02-05T10:20:23.047Z,18.73
2023-02-05T10:22:52.471Z,21.57
2023-02-05T10:25:38.494Z,23.30
2023-02-05T10:28:11.148Z,20.37
2023-02-05T10:30:45.804Z,20.17
2023-02-05T10:33:18.874Z,18.90
2023-02-05T10:36:06.680Z,18.50
2023-02-05T10:38:36.666Z,15.33
2023-02-05T10:41:35.756Z,17.43
2023-02-05T10:44:28.871Z,18.90
2023-02-05T10:47:01.685Z,18.70
2023-02-05T10:49:54.642Z,19.57
2023-02-05T10:52:21.999Z,17.33
2023-02-05T10:54:48.542Z,18.63
2023-02-05T10:57:18.956Z,15.17
2023-02-05T10:59:57.805Z,13.30
2023-02-05T11:02:33.033Z,14.60
2023-02-05T11:05:08.070Z,15.93
2023-02-05T11:07:40.906Z,19.80
2023-02-05T11:10:29.040Z,18.80
2023-02-05T11:13:14.259Z,15.63
2023-02-05T11:15:57.466Z,16.60
2023-02-05T11:18:28.500Z,18.60
2023-02-05T11:20:59.434Z,21.20
2023-02-05T11:23:27.445Z,21.03
2023-02-05T11:25:59.904Z,19.43
2023-02-05T11:28:31.825Z,19.20
2023-02-05T11:31:27.975Z,20.90
2023-02-05T11:34:17.303Z,20.63
2023-02-05T11:36:56.090Z,20.07
2023-02-05T11:39:36.712Z,17.40
2023-02-05T11:42:19.758Z,20.20
2023-02-05T11:44:59.084Z,19.37
2023-02-05T11:47:35.601Z,17.20
2023-02-05T11:50:04.310Z,17.50
2023-02-05T11:52:37.327Z,18.00
2023-02-05T11:55:06.201Z,18.00
2023-02-05T11:57:35.782Z,17.47
2023-02-05T12:00:08.432Z,17.13
2023-02-05T12:02:36.913Z,17.73
2023-02-05T12:05:18.868Z,17.83
2023-02-05T12:07:53.983Z,17.57
2023-02-05T12:10:49.573Z,17.37
2023-02-05T12:13:35.162Z,17.17
2023-02-05T12:16:23.451Z,16.23
2023-02-05T12:19:11.198Z,15.90
2023-02-05T12:21:47.131Z,13.73
2023-02-05T12:24:22.523Z,6.23
2023-02-05T12:26:53.420Z,4.97
2023-02-05T12:29:41.074Z,4.40
2023-02-05T12:32:55.678Z,3.10
2023-02-05T12:35:55.863Z,3.37
2023-02-05T12:38:41.083Z,2.70
2023-02-05T12:41:33.566Z,2.67
2023-02-05T12:44:33.410Z,2.37
2023-02-05T12:47:35.060Z,2.30
2023-02-05T12:50:19.869Z,2.73
2023-02-05T12:53:11.212Z,2.80
2023-02-05T12:55:44.733Z,2.90
2023-02-05T12:58:13.911Z,2.73
2023-02-05T13:00:57.100Z,3.10
2023-02-05T13:03:29.704Z,2.30
2023-02-05T13:06:03.256Z,2.43
2023-02-05T13:08:51.513Z,1.90
2023-02-05T13:11:25.244Z,2.20
2023-02-05T13:13:59.939Z,2.37
2023-02-05T13:16:37.671Z,2.23
2023-02-05T13:19:25.925Z,2.20
2023-02-05T13:22:13.990Z,2.20
2023-02-05T13:25:08.136Z,1.80
2023-02-05T13:27:59.130Z,1.90
2023-02-05T13:30:38.294Z,1.80
2023-02-05T13:33:07.205Z,1.80
2023-02-05T13:35:44.064Z,1.80
2023-02-05T13:38:19.446Z,1.93
2023-02-05T13:40:45.829Z,2.23
2023-02-05T13:43:22.401Z,2.17
2023-02-05T13:46:13.160Z,1.80
2023-02-05T13:48:59.477Z,1.50
2023-02-05T13:52:04.393Z,1.80
2023-02-05T13:54:51.868Z,1.20
2023-02-05T13:57:52.176Z,1.60
2023-02-05T14:00:19.501Z,1.10
2023-02-05T14:02:49.427Z,1.30
2023-02-05T14:05:27.087Z,1.23
2023-02-05T14:07:54.546Z,1.33
2023-02-05T14:10:27.173Z,1.23
2023-02-05T14:13:08.360Z,1.40
2023-02-05T14:15:38.155Z,1.20
2023-02-05T14:18:04.973Z,1.67
2023-02-05T14:20:35.353Z,1.80
2023-02-05T14:23:04.160Z,1.27
2023-02-05T14:25:36.857Z,1.30
2023-02-05T14:28:13.323Z,1.50
2023-02-05T14:30:53.156Z,1.40
2023-02-05T14:33:28.094Z,1.27
2023-02-05T14:36:24.635Z,1.30
2023-02-05T14:38:55.396Z,1.07
2023-02-05T14:41:27.662Z,0.90
2023-02-05T14:43:54.106Z,0.90
2023-02-05T14:46:25.226Z,1.10
2023-02-05T14:48:51.878Z,1.10
2023-02-05T14:51:31.896Z,1.20
2023-02-05T14:54:20.404Z,0.90
2023-02-05T14:56:50.508Z,0.90
2023-02-05T14:59:30.103Z,0.83
2023-02-05T15:01:58.310Z,1.10
2023-02-05T15:04:45.184Z,1.00
2023-02-05T15:07:17.133Z,0.90
2023-02-05T15:09:52.225Z,0.70
2023-02-05T15:12:18.682Z,1.00
2023-02-05T15:14:57.134Z,0.80
2023-02-05T15:17:29.735Z,1.00
2023-02-05T15:20:13.425Z,0.80
2023-02-05T15:22:54.224Z,0.80
2023-02-05T15:25:36.586Z,0.90
2023-02-05T15:28:14.865Z,0.80
2023-02-05T15:31:09.226Z,0.70
2023-02-05T15:33:45.862Z,0.70
2023-02-05T15:36:19.998Z,0.80
2023-02-05T15:38:53.316Z,0.90
2023-02-05T15:41:22.037Z,0.90
2023-02-05T15:43:59.040Z,1.60
2023-02-05T15:46:26.412Z,1.50
2023-02-05T15:48:53.234Z,0.93
2023-02-05T15:51:28.462Z,1.00
2023-02-05T15:53:57.197Z,1.00
2023-02-05T15:56:29.462Z,1.00
2023-02-05T15:59:10.664Z,1.00
2023-02-05T16:01:41.923Z,1.00
2023-02-05T16:04:31.080Z,1.30
2023-02-05T16:06:59.325Z,1.53
2023-02-05T16:09:28.190Z,1.67
2023-02-05T16:11:55.637Z,1.83
2023-02-05T16:14:25.537Z,1.70
2023-02-05T16:17:09.095Z,1.60
2023-02-05T16:20:14.135Z,1.60
2023-02-05T16:22:40.714Z,1.73
2023-02-05T16:25:26.807Z,2.77
2023-02-05T16:27:55.894Z,5.10
2023-02-05T16:30:40.470Z,5.33
2023-02-05T16:33:16.430Z,3.40
2023-02-05T16:35:47.963Z,2.43
2023-02-05T16:38:23.126Z,2.07
2023-02-05T16:40:54.079Z,1.67
2023-02-05T16:43:40.654Z,1.90
2023-02-05T16:46:07.087Z,2.17
2023-02-05T16:48:49.457Z,2.77
2023-02-05T16:51:35.788Z,1.60
2023-02-05T16:54:25.559Z,1.80
2023-02-05T16:56:58.151Z,2.40
2023-02-05T16:59:29.240Z,1.73
2023-02-05T17:01:56.254Z,2.20
2023-02-05T17:04:27.913Z,2.77
2023-02-05T17:06:59.265Z,2.53
2023-02-05T17:09:36.148Z,2.40
2023-02-05T17:12:21.561Z,3.07
2023-02-05T17:14:56.882Z,1.90
2023-02-05T17:17:25.193Z,4.47
2023-02-05T17:20:09.772Z,4.20
2023-02-05T17:22:36.321Z,2.90
2023-02-05T17:25:05.222Z,2.80
2023-02-05T17:27:35.997Z,2.00
2023-02-05T17:30:04.912Z,1.70
2023-02-05T17:32:32.508Z,2.17
2023-02-05T17:35:00.384Z,2.67
2023-02-05T17:37:26.935Z,2.60
2023-02-05T17:39:55.157Z,1.93
2023-02-05T17:42:25.911Z,1.70
2023-02-05T17:44:53.656Z,1.70
2023-02-05T17:47:20.202Z,1.50
2023-02-05T17:49:46.733Z,1.10
2023-02-05T17:52:15.369Z,1.10
2023-02-05T17:54:42.672Z,1.40
2023-02-05T17:57:20.928Z,1.57
2023-02-05T17:59:48.876Z,1.10
2023-02-05T18:02:16.157Z,1.20
2023-02-05T18:04:44.774Z,1.77
2023-02-05T18:07:21.485Z,2.50
2023-02-05T18:09:48.261Z,2.00
2023-02-05T18:12:14.746Z,2.50
2023-02-05T18:14:41.185Z,2.60
2023-02-05T18:17:07.683Z,1.90
2023-02-05T18:19:35.001Z,3.97
2023-02-05T18:22:02.108Z,3.17
2023-02-05T18:24:29.046Z,3.53
2023-02-05T18:26:55.523Z,2.57
2023-02-05T18:29:21.973Z,5.83
2023-02-05T18:31:49.050Z,3.00
2023-02-05T18:34:15.729Z,3.43
2023-02-05T18:36:42.194Z,5.07
2023-02-05T18:39:09.729Z,4.30
2023-02-05T18:41:38.121Z,3.60
2023-02-05T18:44:05.012Z,2.87
2023-02-05T18:46:31.594Z,2.50
2023-02-05T18:48:58.121Z,1.70
2023-02-05T18:51:24.653Z,3.13
2023-02-05T18:53:51.154Z,2.80
2023-02-05T18:56:19.021Z,2.27
2023-02-05T18:58:56.139Z,2.37
2023-02-05T19:01:23.003Z,1.90
2023-02-05T19:03:52.655Z,4.30
2023-02-05T19:06:19.543Z,2.00
2023-02-05T19:08:46.083Z,1.87
2023-02-05T19:11:15.834Z,2.20
2023-02-05T19:13:42.892Z,3.50
2023-02-05T19:16:12.867Z,6.73
2023-02-05T19:18:44.748Z,4.60
2023-02-05T19:21:13.966Z,5.40
2023-02-05T19:23:40.958Z,2.40
2023-02-05T19:26:09.964Z,2.30
2023-02-05T19:28:40.886Z,2.00
2023-02-05T19:31:10.099Z,2.63
2023-02-05T19:33:37.312Z,2.77
2023-02-05T19:36:06.178Z,2.97
2023-02-05T19:38:38.262Z,3.23
2023-02-05T19:41:26.225Z,4.00
2023-02-05T19:43:58.356Z,3.40
2023-02-05T19:46:31.479Z,3.40
2023-02-05T19:49:01.852Z,3.60
2023-02-05T19:51:28.407Z,3.30
2023-02-05T19:53:59.328Z,4.20
2023-02-05T19:56:26.624Z,4.30
2023-02-05T19:58:54.985Z,4.27
2023-02-05T20:01:24.297Z,4.70
2023-02-05T20:03:57.162Z,4.30
2023-02-05T20:06:26.117Z,5.37
2023-02-05T20:08:52.896Z,5.50
2023-02-05T20:11:20.353Z,6.10
2023-02-05T20:13:47.380Z,6.47
2023-02-05T20:16:17.518Z,5.23
2023-02-05T20:18:45.344Z,6.20
2023-02-05T20:21:15.447Z,5.57
2023-02-05T20:23:42.073Z,6.10
2023-02-05T20:26:09.148Z,6.93
2023-02-05T20:28:59.795Z,6.00
2023-02-05T20:31:34.446Z,6.90
2023-02-05T20:34:07.148Z,7.40
2023-02-05T20:36:35.451Z,8.07
2023-02-05T20:39:06.944Z,7.50
2023-02-05T20:41:34.038Z,6.33
2023-02-05T20:44:00.524Z,5.57
2023-02-05T20:46:27.256Z,6.47
2023-02-05T20:48:53.773Z,6.47
2023-02-05T20:51:22.863Z,6.67
2023-02-05T20:53:50.128Z,6.50
2023-02-05T20:56:19.489Z,6.60
2023-02-05T20:58:47.007Z,5.97
2023-02-05T21:01:21.908Z,7.10
2023-02-05T21:03:50.967Z,5.83
2023-02-05T21:06:19.459Z,5.70
2023-02-05T21:08:47.772Z,5.83
2023-02-05T21:11:15.475Z,4.93
2023-02-05T21:13:43.350Z,5.00
2023-02-05T21:16:11.171Z,4.97
2023-02-05T21:18:38.907Z,5.97
2023-02-05T21:21:10.641Z,5.17
2023-02-05T21:23:37.270Z,5.80
2023-02-05T21:26:04.745Z,5.40
2023-02-05T21:28:32.427Z,4.60
2023-02-05T21:31:07.374Z,4.77
2023-02-05T21:33:35.341Z,4.80
2023-02-05T21:36:07.529Z,4.33
2023-02-05T21:38:41.123Z,4.07
2023-02-05T21:41:12.595Z,3.70
2023-02-05T21:43:39.143Z,3.57
2023-02-05T21:46:08.393Z,4.10
2023-02-05T21:48:34.904Z,3.43
2023-02-05T21:51:15.356Z,3.53
2023-02-05T21:53:42.404Z,3.30
2023-02-05T21:56:16.482Z,3.47
2023-02-05T21:58:43.265Z,2.80
2023-02-05T22:01:15.087Z,3.07
2023-02-05T22:03:43.067Z,3.07
2023-02-05T22:06:09.933Z,3.70
2023-02-05T22:08:38.104Z,3.50
2023-02-05T22:11:06.995Z,3.83
2023-02-05T22:13:35.575Z,4.47
2023-02-05T22:16:19.612Z,5.40
2023-02-05T22:18:46.477Z,5.87
2023-02-05T22:21:16.296Z,9.60
2023-02-05T22:23:45.071Z,12.37
2023-02-05T22:26:12.109Z,11.77
2023-02-05T22:28:38.782Z,12.77
2023-02-05T22:31:10.675Z,10.90
2023-02-05T22:33:39.332Z,13.73
2023-02-05T22:36:07.771Z,13.70
2023-02-05T22:38:36.358Z,14.27
2023-02-05T22:41:11.589Z,14.07
2023-02-05T22:43:38.190Z,14.70
2023-02-05T22:46:10.283Z,16.40
2023-02-05T22:48:38.960Z,16.07
2023-02-05T22:51:08.811Z,15.80
2023-02-05T22:53:35.798Z,15.93
2023-02-05T22:56:07.222Z,15.13
2023-02-05T22:58:34.539Z,15.37
2023-02-05T23:01:13.143Z,14.77
2023-02-05T23:03:39.912Z,15.33
2023-02-05T23:06:18.282Z,15.93
2023-02-05T23:08:50.333Z,15.97
2023-02-05T23:11:16.820Z,14.53
2023-02-05T23:13:43.312Z,14.30
2023-02-05T23:16:13.255Z,15.57
2023-02-05T23:18:41.864Z,15.90
2023-02-05T23:21:10.605Z,16.70
2023-02-05T23:23:37.097Z,15.80
2023-02-05T23:26:12.351Z,16.90
2023-02-05T23:28:39.476Z,15.23
2023-02-05T23:31:06.602Z,16.60
2023-02-05T23:33:33.939Z,16.17
2023-02-05T23:36:01.755Z,17.23
2023-02-05T23:38:28.382Z,17.30
2023-02-05T23:40:55.972Z,16.97
2023-02-05T23:43:23.380Z,16.30
2023-02-05T23:45:50.935Z,17.40
2023-02-05T23:48:17.872Z,16.53
2023-02-05T23:50:45.079Z,17.13
2023-02-05T23:53:11.849Z,17.00
2023-02-05T23:55:40.274Z,16.97
2023-02-05T23:58:08.019Z,17.07
